Wednesday, May 23, 2018, 4:56 AM GMT
Back to Local

CYYZ, Toronto Pearson Int'L. Ont.

Location: , , Canada Lat: 43.667
Local Time: 4:56 AM GMT ( 4:56 GMT) Lon: -79.633
Time Zone: GMT Elev: 567 ft

Show me the last for .
Show Coded

Time T Td Feel RH Dir Speed Gust Alt SLP Vis Weather Sky Remarks
2018-05-23 04:00 59 55 - 87 350° 10 - 29.96 29.97 15 FEW010 SCT022 OVC053 None
2018-05-23 03:00 59 57 - 93 360° 9 - 29.96 29.96 15 SCT010 BKN025 OVC038 None
2018-05-23 02:25 61 57 - 87 360° 6 - 29.95 29.96 12 SCT010 OVC025 None
2018-05-23 02:00 59 55 - 87 210° 2 - 29.94 29.95 6 -DZ BR BKN010 OVC015 None
2018-05-23 01:00 59 54 - 82 Variable 2 - 29.92 29.93 6 -DZ BR OVC011 None
2018-05-23 00:00 59 55 - 87 160° 3 - 29.91 29.91 6 BR OVC008 None
2018-05-22 23:41 59 55 - 87 180° 5 - 29.91 29.92 6 BR OVC008 None
2018-05-22 23:00 61 57 - 87 Variable 2 - 29.91 29.92 15 BR BKN009 OVC012 None
2018-05-22 22:27 61 57 - 87 10° 8 - 29.91 29.91 6 -DZ BR OVC011 None
2018-05-22 22:00 63 57 - 82 40° 6 - 29.90 29.91 6 BR OVC015 None
2018-05-22 21:00 63 59 - 88 - Calm - 29.90 29.91 3 BR OVC014 None
2018-05-22 20:00 63 57 - 82 Variable 2 - 29.91 29.92 6 BR OVC013 None
2018-05-22 19:00 61 57 - 87 140° 6 - 29.92 29.93 4 BR OVC010 None
2018-05-22 18:00 59 57 - 93 - Calm - 29.94 29.95 3 BR BKN008 None
2018-05-22 17:00 57 55 - 93 180° 3 - 29.96 29.96 3 BR OVC004 None
2018-05-22 16:00 57 55 - 93 - Calm - 29.96 29.97 3 BR OVC004 None
2018-05-22 15:00 55 54 - 93 100° 3 - 29.97 29.98 2 -DZ BR OVC004 None
2018-05-22 14:20 55 54 - 93 110° 7 - 29.97 29.98 2 -DZ BR OVC004 None
2018-05-22 14:00 55 54 - 93 90° 7 - 29.97 29.98 2 -DZ BR OVC005 None
2018-05-22 13:20 55 54 - 93 80° 5 - 29.98 29.99 15 OVC005 None
2018-05-22 13:00 54 52 - 93 50° 6 - 29.99 29.99 6 -DZ BR OVC005 None
2018-05-22 12:16 54 50 - 87 10° 6 - 30.00 30.00 3 -DZ BR OVC005 None
2018-05-22 12:00 52 50 - 93 60° 8 - 30.00 30.00 2 -RA BR OVC008 None
2018-05-22 11:17 54 50 - 87 40° 10 - 30.01 30.01 1 -RA BR OVC008 None
2018-05-22 11:00 54 50 - 87 50° 7 - 30.00 30.01 4 -RA BR OVC012 None
2018-05-22 10:31 54 50 - 87 30° 6 - 30.00 30.01 6 -RA OVC025 None
2018-05-22 10:20 52 50 - 93 30° 7 - 30.00 30.01 4 +RA BR OVC035 None
2018-05-22 10:00 54 50 - 87 20° 5 - 30.00 30.01 6 -RA BR OVC033 None
2018-05-22 09:21 52 46 - 81 30° 7 - 30.01 30.02 5 -RA BR OVC036 None
2018-05-22 09:08 52 46 - 81 80° 5 - 30.01 30.02 5 +RA OVC034 None
2018-05-22 09:00 54 46 - 76 Variable 2 - 30.02 30.03 6 -RA OVC034 None
2018-05-22 08:00 55 45 - 66 180° 3 - 30.03 30.04 6 -RA OVC050 None
2018-05-22 07:00 57 41 - 54 150° 2 - 30.05 30.05 15 -RA OVC060 None
2018-05-22 06:00 57 37 - 47 200° 5 - 30.07 30.08 15 -RA OVC080 None
2018-05-22 05:00 57 36 - 44 170° 5 - 30.07 30.08 15 OVC095 None

Support USWX by starting your Amazon purchase here.